Hesperides — EANN — position and weather

sailwx.info

Track history (hours):
 
Tides and Currents Weather Stations Pressure Air Temp Water Temp Dewpoint Dewpoint Depression Visibility Wind Speed Wind Dir Waves Ship Positions

Hesperides

Last reported at 2016-Aug-28 08:31 UTC. Time now 2016-Aug-29 03:42 UTC.
Position N 27°59' W 015°23'.

Length 122 m; draft 5.8 m.

Type: Tanker. MMSI: 224462000.

Date/timePositionNaut miles runAvg speedWind from/ knotsBaromVisibWave heightAir tempDewpointWater temp
2016-Aug-28 08:31N 27°59' W 015°23'1 0.5
2016-Aug-28 07:33N 27°59' W 015°22'4 4.3
2016-Aug-28 06:34N 28°03' W 015°20'9 9.3
2016-Aug-28 05:34N 28°12' W 015°22'9 9.1
2016-Aug-28 04:34N 28°16' W 015°31'9 8.7
2016-Aug-28 03:33N 28°18' W 015°41'8 8.5
2016-Aug-28 02:33N 28°21' W 015°50'9 8.5
2016-Aug-28 01:33N 28°24' W 015°59'9 8.6
2016-Aug-28 00:33N 28°27' W 016°08'4 0.2
2016-Aug-27 04:33N 28°26' W 016°13'2 1.9
2016-Aug-27 03:27N 28°27' W 016°10'2 2.0
2016-Aug-27 02:33N 28°26' W 016°09'7 7.0
2016-Aug-27 01:33N 28°19' W 016°13'5 5.5
2016-Aug-27 00:32N 28°24' W 016°10'7 7.1
2016-Aug-26 23:33N 28°31' W 016°07'5 4.6
2016-Aug-26 22:33N 28°26' W 016°04'9 8.9
2016-Aug-26 21:33N 28°24' W 015°54'9 9.3
2016-Aug-26 20:33N 28°21' W 015°44'10 9.6
2016-Aug-26 19:33N 28°18' W 015°34'9 9.2
2016-Aug-26 18:33N 28°16' W 015°24'9 8.9
2016-Aug-26 17:33N 28°13' W 015°14'9 9.4
2016-Aug-26 16:33N 28°09' W 015°04'10 9.6
2016-Aug-26 15:33N 28°06' W 014°54'1010.0
2016-Aug-26 14:33N 28°03' W 014°43'1010.3
2016-Aug-26 13:33N 27°60' W 014°32'1010.0
2016-Aug-26 12:33N 27°57' W 014°21'1110.3
2016-Aug-26 11:32N 28°03' W 014°11'1010.2
2016-Aug-26 10:33N 28°08' W 014°02'2110.3
2016-Aug-26 08:29N 28°24' W 013°46'8 8.6
2016-Aug-26 07:30N 28°31' W 013°41'9 9.8
2016-Aug-26 06:32N 28°39' W 013°35'20 9.7
2016-Aug-26 04:30N 28°51' W 013°16'1010.0
2016-Aug-26 03:33N 28°55' W 013°07'7210.0
2016-Aug-25 20:21N 29°29' W 011°55'131 3.6
2016-Aug-24 07:33N 30°25' W 009°38'24 7.2
2016-Aug-24 04:14N 30°24' W 010°06'5 7.0
2016-Aug-24 03:33N 30°23' W 010°11'8 7.4
2016-Aug-24 02:31N 30°19' W 010°20'7 7.5
2016-Aug-24 01:33N 30°16' W 010°27'7 7.2
2016-Aug-24 00:33N 30°13' W 010°34'7 7.2
2016-Aug-23 23:33N 30°09' W 010°42'7 7.2
2016-Aug-23 22:33N 30°06' W 010°49'7 7.2
2016-Aug-23 21:32N 30°03' W 010°57'8 7.5
2016-Aug-23 20:25N 29°59' W 011°05'15 7.8
2016-Aug-23 18:31N 29°53' W 011°21'8 7.6
2016-Aug-23 17:29N 29°49' W 011°29'7 7.6
2016-Aug-23 16:33N 29°45' W 011°36'5 1.2
2016-Aug-23 12:13N 29°43' W 011°41'5 7.6
2016-Aug-23 11:33N 29°40' W 011°46'8 7.7
2016-Aug-23 10:33N 29°36' W 011°53'7 7.3
2016-Aug-23 09:34N 29°33' W 012°01'7 6.8
2016-Aug-23 08:33N 29°29' W 012°07'7 6.8
2016-Aug-23 07:33N 29°25' W 012°14'7 6.8
2016-Aug-23 06:33N 29°22' W 012°20'7 6.9
2016-Aug-23 05:33N 29°18' W 012°27'7 6.8
2016-Aug-23 04:33N 29°13' W 012°33'7 6.9
2016-Aug-23 03:33N 29°09' W 012°39'8 6.9
2016-Aug-23 02:26N 29°04' W 012°46'6 6.7
2016-Aug-23 01:33N 29°00' W 012°51'7 6.7
2016-Aug-23 00:33N 28°56' W 012°57'15 6.9
2016-Aug-22 22:23N 28°47' W 013°11'55 7.8
2016-Aug-22 15:22N 28°11' W 013°58'8 8.7
2016-Aug-22 14:30N 28°07' W 014°05'8 8.7
2016-Aug-22 13:33N 28°03' W 014°14'8 8.4
2016-Aug-22 12:33N 28°00' W 014°22'9 8.7
2016-Aug-22 11:33N 27°58' W 014°32'8 8.1
2016-Aug-22 10:33N 27°55' W 014°41'8 8.2
2016-Aug-22 09:34N 27°52' W 014°49'8 8.0
2016-Aug-22 08:33N 27°49' W 014°58'8 8.1
2016-Aug-22 07:33N 27°50' W 015°07'9 9.4
2016-Aug-22 06:34N 27°55' W 015°16'7 7.0
2016-Aug-22 05:33N 27°59' W 015°23'0 0.0
2016-Aug-22 04:34N 27°59' W 015°23'0 0.0
2016-Aug-22 00:33N 27°59' W 015°23'0 0.0
2016-Aug-21 23:33N 27°59' W 015°23'0 0.0
2016-Aug-21 22:33N 27°59' W 015°23'0 0.0
2016-Aug-21 21:33N 27°59' W 015°23'0 0.0
2016-Aug-21 20:33N 27°59' W 015°23'0 0.0
2016-Aug-21 19:33N 27°59' W 015°23'0 0.0
2016-Aug-21 18:33N 27°59' W 015°23'0 0.0
2016-Aug-21 17:33N 27°59' W 015°23'0 0.0
2016-Aug-21 16:33N 27°59' W 015°23'0 0.0
2016-Aug-21 15:33N 27°59' W 015°23'0 0.0
2016-Aug-21 14:33N 27°59' W 015°23'0 0.0
2016-Aug-21 13:33N 27°59' W 015°23'0 0.0
2016-Aug-21 12:33N 27°59' W 015°23'0 0.0
2016-Aug-21 11:33N 27°59' W 015°23'0 0.0
2016-Aug-21 10:33N 27°59' W 015°23'0 0.0
2016-Aug-21 09:33N 27°59' W 015°23'0 0.0
2016-Aug-21 08:33N 27°59' W 015°23'0 0.0
2016-Aug-21 07:33N 27°59' W 015°23'0 0.0
2016-Aug-21 06:33N 27°59' W 015°23'0 0.0
2016-Aug-21 05:33N 27°59' W 015°23'0 0.0
2016-Aug-21 04:33N 27°59' W 015°23'0 0.0
2016-Aug-21 03:33N 27°59' W 015°23'0 0.0
2016-Aug-21 02:33N 27°59' W 015°23'0 0.0
2016-Aug-21 01:34N 27°59' W 015°23'0 0.0
2016-Aug-21 00:33N 27°59' W 015°23'0 0.0
2016-Aug-20 23:33N 27°59' W 015°23'0 0.0
2016-Aug-20 22:33N 27°59' W 015°23'0 0.0
2016-Aug-20 21:33N 27°59' W 015°23'0 0.0
2016-Aug-20 20:33N 27°59' W 015°23'0 0.0
2016-Aug-20 19:33N 27°59' W 015°23'0 0.0
2016-Aug-20 18:33N 27°59' W 015°23'0 0.0
2016-Aug-20 17:33N 27°59' W 015°23'0 0.0
2016-Aug-20 16:33N 27°59' W 015°23'0 0.0
2016-Aug-20 15:33N 27°59' W 015°23'0 0.0
2016-Aug-20 14:33N 27°59' W 015°23'0 0.0
2016-Aug-20 13:33N 27°59' W 015°23'0 0.0
2016-Aug-20 12:33N 27°59' W 015°23'0 0.0
2016-Aug-20 11:33N 27°59' W 015°23'1 1.4
2016-Aug-20 10:33N 27°59' W 015°21'5 4.6
2016-Aug-20 09:33N 28°04' W 015°21'9 9.0
2016-Aug-20 08:33N 28°12' W 015°23'9 9.4
2016-Aug-20 07:34N 28°15' W 015°33'9 9.0
2016-Aug-20 06:33N 28°18' W 015°43'9 8.8
2016-Aug-20 05:33N 28°21' W 015°52'9 8.7
2016-Aug-20 04:33N 28°24' W 016°01'9 9.1
2016-Aug-20 03:33N 28°28' W 016°11'2 2.4
2016-Aug-20 02:33N 28°29' W 016°13'0 0.0
2016-Aug-19 09:16N 28°29' W 016°13'0 0.4
2016-Aug-19 08:17N 28°29' W 016°13'0 0.0
2016-Aug-19 07:05N 28°29' W 016°13'0 0.0
2016-Aug-19 06:32N 28°29' W 016°13'0 0.0
2016-Aug-19 02:23N 28°29' W 016°13'0 0.0
2016-Aug-18 22:20N 28°29' W 016°13'0 0.0
2016-Aug-18 21:26N 28°29' W 016°13'0 0.0
2016-Aug-18 20:26N 28°29' W 016°13'0 0.0
2016-Aug-18 19:08N 28°29' W 016°13'0 0.1
2016-Aug-18 18:26N 28°29' W 016°13'0 0.0
2016-Aug-18 17:26N 28°29' W 016°13'0 0.0
2016-Aug-18 16:26N 28°29' W 016°13'0 0.0
2016-Aug-18 15:29N 28°29' W 016°13'0 0.0
2016-Aug-18 13:31N 28°29' W 016°13'0 0.0
2016-Aug-18 12:31N 28°29' W 016°13'0 0.0
2016-Aug-18 11:28N 28°29' W 016°13'0 0.0
2016-Aug-18 09:04N 28°29' W 016°13'  
Track history (hours):
 
Tides and Currents Weather Stations Pressure Air Temp Water Temp Dewpoint Dewpoint Depression Visibility Wind Speed Wind Dir Waves Ship Positions

Hesperides

Last reported at 2016-Aug-28 08:31 UTC. Time now 2016-Aug-29 03:42 UTC.
Position N 27°59' W 015°23'.

Length 122 m; draft 5.8 m.

Type: Tanker. MMSI: 224462000.

Date/timePositionNaut miles runAvg speedWind from/ knotsBaromVisibWave heightAir tempDewpointWater temp
2016-Aug-28 08:31N 27°59' W 015°23'1 0.5
2016-Aug-28 07:33N 27°59' W 015°22'4 4.3
2016-Aug-28 06:34N 28°03' W 015°20'9 9.3
2016-Aug-28 05:34N 28°12' W 015°22'9 9.1
2016-Aug-28 04:34N 28°16' W 015°31'9 8.7
2016-Aug-28 03:33N 28°18' W 015°41'8 8.5
2016-Aug-28 02:33N 28°21' W 015°50'9 8.5
2016-Aug-28 01:33N 28°24' W 015°59'9 8.6
2016-Aug-28 00:33N 28°27' W 016°08'4 0.2
2016-Aug-27 04:33N 28°26' W 016°13'2 1.9
2016-Aug-27 03:27N 28°27' W 016°10'2 2.0
2016-Aug-27 02:33N 28°26' W 016°09'7 7.0
2016-Aug-27 01:33N 28°19' W 016°13'5 5.5
2016-Aug-27 00:32N 28°24' W 016°10'7 7.1
2016-Aug-26 23:33N 28°31' W 016°07'5 4.6
2016-Aug-26 22:33N 28°26' W 016°04'9 8.9
2016-Aug-26 21:33N 28°24' W 015°54'9 9.3
2016-Aug-26 20:33N 28°21' W 015°44'10 9.6
2016-Aug-26 19:33N 28°18' W 015°34'9 9.2
2016-Aug-26 18:33N 28°16' W 015°24'9 8.9
2016-Aug-26 17:33N 28°13' W 015°14'9 9.4
2016-Aug-26 16:33N 28°09' W 015°04'10 9.6
2016-Aug-26 15:33N 28°06' W 014°54'1010.0
2016-Aug-26 14:33N 28°03' W 014°43'1010.3
2016-Aug-26 13:33N 27°60' W 014°32'1010.0
2016-Aug-26 12:33N 27°57' W 014°21'1110.3
2016-Aug-26 11:32N 28°03' W 014°11'1010.2
2016-Aug-26 10:33N 28°08' W 014°02'2110.3
2016-Aug-26 08:29N 28°24' W 013°46'8 8.6
2016-Aug-26 07:30N 28°31' W 013°41'9 9.8
2016-Aug-26 06:32N 28°39' W 013°35'20 9.7
2016-Aug-26 04:30N 28°51' W 013°16'1010.0
2016-Aug-26 03:33N 28°55' W 013°07'7210.0
2016-Aug-25 20:21N 29°29' W 011°55'131 3.6
2016-Aug-24 07:33N 30°25' W 009°38'24 7.2
2016-Aug-24 04:14N 30°24' W 010°06'5 7.0
2016-Aug-24 03:33N 30°23' W 010°11'8 7.4
2016-Aug-24 02:31N 30°19' W 010°20'7 7.5
2016-Aug-24 01:33N 30°16' W 010°27'7 7.2
2016-Aug-24 00:33N 30°13' W 010°34'7 7.2
2016-Aug-23 23:33N 30°09' W 010°42'7 7.2
2016-Aug-23 22:33N 30°06' W 010°49'7 7.2
2016-Aug-23 21:32N 30°03' W 010°57'8 7.5
2016-Aug-23 20:25N 29°59' W 011°05'15 7.8
2016-Aug-23 18:31N 29°53' W 011°21'8 7.6
2016-Aug-23 17:29N 29°49' W 011°29'7 7.6
2016-Aug-23 16:33N 29°45' W 011°36'5 1.2
2016-Aug-23 12:13N 29°43' W 011°41'5 7.6
2016-Aug-23 11:33N 29°40' W 011°46'8 7.7
2016-Aug-23 10:33N 29°36' W 011°53'7 7.3
2016-Aug-23 09:34N 29°33' W 012°01'7 6.8
2016-Aug-23 08:33N 29°29' W 012°07'7 6.8
2016-Aug-23 07:33N 29°25' W 012°14'7 6.8
2016-Aug-23 06:33N 29°22' W 012°20'7 6.9
2016-Aug-23 05:33N 29°18' W 012°27'7 6.8
2016-Aug-23 04:33N 29°13' W 012°33'7 6.9
2016-Aug-23 03:33N 29°09' W 012°39'8 6.9
2016-Aug-23 02:26N 29°04' W 012°46'6 6.7
2016-Aug-23 01:33N 29°00' W 012°51'7 6.7
2016-Aug-23 00:33N 28°56' W 012°57'15 6.9
2016-Aug-22 22:23N 28°47' W 013°11'55 7.8
2016-Aug-22 15:22N 28°11' W 013°58'8 8.7
2016-Aug-22 14:30N 28°07' W 014°05'8 8.7
2016-Aug-22 13:33N 28°03' W 014°14'8 8.4
2016-Aug-22 12:33N 28°00' W 014°22'9 8.7
2016-Aug-22 11:33N 27°58' W 014°32'8 8.1
2016-Aug-22 10:33N 27°55' W 014°41'8 8.2
2016-Aug-22 09:34N 27°52' W 014°49'8 8.0
2016-Aug-22 08:33N 27°49' W 014°58'8 8.1
2016-Aug-22 07:33N 27°50' W 015°07'9 9.4
2016-Aug-22 06:34N 27°55' W 015°16'7 7.0
2016-Aug-22 05:33N 27°59' W 015°23'0 0.0
2016-Aug-22 04:34N 27°59' W 015°23'0 0.0
2016-Aug-22 00:33N 27°59' W 015°23'0 0.0
2016-Aug-21 23:33N 27°59' W 015°23'0 0.0
2016-Aug-21 22:33N 27°59' W 015°23'0 0.0
2016-Aug-21 21:33N 27°59' W 015°23'0 0.0
2016-Aug-21 20:33N 27°59' W 015°23'0 0.0
2016-Aug-21 19:33N 27°59' W 015°23'0 0.0
2016-Aug-21 18:33N 27°59' W 015°23'0 0.0
2016-Aug-21 17:33N 27°59' W 015°23'0 0.0
2016-Aug-21 16:33N 27°59' W 015°23'0 0.0
2016-Aug-21 15:33N 27°59' W 015°23'0 0.0
2016-Aug-21 14:33N 27°59' W 015°23'0 0.0
2016-Aug-21 13:33N 27°59' W 015°23'0 0.0
2016-Aug-21 12:33N 27°59' W 015°23'0 0.0
2016-Aug-21 11:33N 27°59' W 015°23'0 0.0
2016-Aug-21 10:33N 27°59' W 015°23'0 0.0
2016-Aug-21 09:33N 27°59' W 015°23'0 0.0
2016-Aug-21 08:33N 27°59' W 015°23'0 0.0
2016-Aug-21 07:33N 27°59' W 015°23'0 0.0
2016-Aug-21 06:33N 27°59' W 015°23'0 0.0
2016-Aug-21 05:33N 27°59' W 015°23'0 0.0
2016-Aug-21 04:33N 27°59' W 015°23'0 0.0
2016-Aug-21 03:33N 27°59' W 015°23'0 0.0
2016-Aug-21 02:33N 27°59' W 015°23'0 0.0
2016-Aug-21 01:34N 27°59' W 015°23'0 0.0
2016-Aug-21 00:33N 27°59' W 015°23'0 0.0
2016-Aug-20 23:33N 27°59' W 015°23'0 0.0
2016-Aug-20 22:33N 27°59' W 015°23'0 0.0
2016-Aug-20 21:33N 27°59' W 015°23'0 0.0
2016-Aug-20 20:33N 27°59' W 015°23'0 0.0
2016-Aug-20 19:33N 27°59' W 015°23'0 0.0
2016-Aug-20 18:33N 27°59' W 015°23'0 0.0
2016-Aug-20 17:33N 27°59' W 015°23'0 0.0
2016-Aug-20 16:33N 27°59' W 015°23'0 0.0
2016-Aug-20 15:33N 27°59' W 015°23'0 0.0
2016-Aug-20 14:33N 27°59' W 015°23'0 0.0
2016-Aug-20 13:33N 27°59' W 015°23'0 0.0
2016-Aug-20 12:33N 27°59' W 015°23'0 0.0
2016-Aug-20 11:33N 27°59' W 015°23'1 1.4
2016-Aug-20 10:33N 27°59' W 015°21'5 4.6
2016-Aug-20 09:33N 28°04' W 015°21'9 9.0
2016-Aug-20 08:33N 28°12' W 015°23'9 9.4
2016-Aug-20 07:34N 28°15' W 015°33'9 9.0
2016-Aug-20 06:33N 28°18' W 015°43'9 8.8
2016-Aug-20 05:33N 28°21' W 015°52'9 8.7
2016-Aug-20 04:33N 28°24' W 016°01'9 9.1
2016-Aug-20 03:33N 28°28' W 016°11'2 2.4
2016-Aug-20 02:33N 28°29' W 016°13'0 0.0
2016-Aug-19 09:16N 28°29' W 016°13'0 0.4
2016-Aug-19 08:17N 28°29' W 016°13'0 0.0
2016-Aug-19 07:05N 28°29' W 016°13'0 0.0
2016-Aug-19 06:32N 28°29' W 016°13'0 0.0
2016-Aug-19 02:23N 28°29' W 016°13'0 0.0
2016-Aug-18 22:20N 28°29' W 016°13'0 0.0
2016-Aug-18 21:26N 28°29' W 016°13'0 0.0
2016-Aug-18 20:26N 28°29' W 016°13'0 0.0
2016-Aug-18 19:08N 28°29' W 016°13'0 0.1
2016-Aug-18 18:26N 28°29' W 016°13'0 0.0
2016-Aug-18 17:26N 28°29' W 016°13'0 0.0
2016-Aug-18 16:26N 28°29' W 016°13'0 0.0
2016-Aug-18 15:29N 28°29' W 016°13'0 0.0
2016-Aug-18 13:31N 28°29' W 016°13'0 0.0
2016-Aug-18 12:31N 28°29' W 016°13'0 0.0
2016-Aug-18 11:28N 28°29' W 016°13'0 0.0
2016-Aug-18 09:04N 28°29' W 016°13'  

Dump ship's entire track history